sensor_id;sensor_type;location;lat;lon;timestamp;P1;durP1;ratioP1;P2;durP2;ratioP2
39448;SDS011;25151;45.566;9.382;2023-06-01T00:00:01;3.83;;;2.10;;
39448;SDS011;25151;45.566;9.382;2023-06-01T00:03:06;2.53;;;1.90;;
39448;SDS011;25151;45.566;9.382;2023-06-01T00:06:07;2.80;;;1.73;;
39448;SDS011;25151;45.566;9.382;2023-06-01T00:09:08;3.95;;;2.10;;
39448;SDS011;25151;45.566;9.382;2023-06-01T00:12:09;3.10;;;2.13;;
39448;SDS011;25151;45.566;9.382;2023-06-01T00:15:10;3.25;;;2.00;;
39448;SDS011;25151;45.566;9.382;2023-06-01T00:18:11;2.45;;;1.75;;
39448;SDS011;25151;45.566;9.382;2023-06-01T00:21:13;3.20;;;1.90;;
39448;SDS011;25151;45.566;9.382;2023-06-01T00:24:13;2.90;;;1.95;;
39448;SDS011;25151;45.566;9.382;2023-06-01T00:27:14;3.33;;;2.00;;
39448;SDS011;25151;45.566;9.382;2023-06-01T00:30:15;2.30;;;1.63;;
39448;SDS011;25151;45.566;9.382;2023-06-01T00:33:15;2.25;;;1.73;;
39448;SDS011;25151;45.566;9.382;2023-06-01T00:36:16;5.60;;;2.33;;
39448;SDS011;25151;45.566;9.382;2023-06-01T00:39:17;3.92;;;2.50;;
39448;SDS011;25151;45.566;9.382;2023-06-01T00:42:17;2.85;;;2.22;;
39448;SDS011;25151;45.566;9.382;2023-06-01T00:45:18;2.15;;;1.83;;
39448;SDS011;25151;45.566;9.382;2023-06-01T00:48:19;2.13;;;1.70;;
39448;SDS011;25151;45.566;9.382;2023-06-01T00:51:21;2.33;;;1.52;;
39448;SDS011;25151;45.566;9.382;2023-06-01T00:54:21;2.38;;;2.05;;
39448;SDS011;25151;45.566;9.382;2023-06-01T00:57:22;2.97;;;1.98;;
39448;SDS011;25151;45.566;9.382;2023-06-01T01:00:26;2.17;;;1.90;;
39448;SDS011;25151;45.566;9.382;2023-06-01T01:03:29;3.63;;;1.70;;
39448;SDS011;25151;45.566;9.382;2023-06-01T01:10:19;1.90;;;1.45;;
39448;SDS011;25151;45.566;9.382;2023-06-01T01:13:27;3.75;;;2.28;;
39448;SDS011;25151;45.566;9.382;2023-06-01T01:17:36;3.63;;;1.83;;
39448;SDS011;25151;45.566;9.382;2023-06-01T01:20:24;2.35;;;1.92;;
39448;SDS011;25151;45.566;9.382;2023-06-01T01:23:48;3.13;;;2.10;;
39448;SDS011;25151;45.566;9.382;2023-06-01T01:30:26;3.25;;;2.05;;
39448;SDS011;25151;45.566;9.382;2023-06-01T01:33:28;2.42;;;2.00;;
39448;SDS011;25151;45.566;9.382;2023-06-01T01:36:31;3.30;;;1.67;;
39448;SDS011;25151;45.566;9.382;2023-06-01T01:39:32;2.60;;;1.65;;
39448;SDS011;25151;45.566;9.382;2023-06-01T01:42:33;3.00;;;1.73;;
39448;SDS011;25151;45.566;9.382;2023-06-01T01:45:33;2.72;;;1.95;;
39448;SDS011;25151;45.566;9.382;2023-06-01T01:48:47;3.30;;;2.13;;
39448;SDS011;25151;45.566;9.382;2023-06-01T01:55:14;2.55;;;1.80;;
39448;SDS011;25151;45.566;9.382;2023-06-01T01:58:18;4.30;;;2.10;;
39448;SDS011;25151;45.566;9.382;2023-06-01T02:01:19;2.70;;;1.98;;
39448;SDS011;25151;45.566;9.382;2023-06-01T02:04:20;3.78;;;2.10;;
39448;SDS011;25151;45.566;9.382;2023-06-01T02:07:21;3.97;;;2.08;;
39448;SDS011;25151;45.566;9.382;2023-06-01T02:10:21;2.42;;;2.05;;
39448;SDS011;25151;45.566;9.382;2023-06-01T02:13:22;2.97;;;2.33;;
39448;SDS011;25151;45.566;9.382;2023-06-01T02:16:24;2.20;;;1.85;;
39448;SDS011;25151;45.566;9.382;2023-06-01T02:19:26;4.38;;;2.60;;
39448;SDS011;25151;45.566;9.382;2023-06-01T02:22:27;2.17;;;1.73;;
39448;SDS011;25151;45.566;9.382;2023-06-01T02:25:28;2.55;;;1.77;;
39448;SDS011;25151;45.566;9.382;2023-06-01T02:28:28;2.50;;;1.90;;
39448;SDS011;25151;45.566;9.382;2023-06-01T02:31:29;3.20;;;2.10;;
39448;SDS011;25151;45.566;9.382;2023-06-01T02:34:30;3.28;;;2.10;;
39448;SDS011;25151;45.566;9.382;2023-06-01T02:37:31;3.72;;;1.88;;
39448;SDS011;25151;45.566;9.382;2023-06-01T02:40:32;4.18;;;2.05;;
39448;SDS011;25151;45.566;9.382;2023-06-01T02:43:35;3.05;;;1.80;;
39448;SDS011;25151;45.566;9.382;2023-06-01T02:46:36;4.00;;;2.17;;
39448;SDS011;25151;45.566;9.382;2023-06-01T02:49:37;5.22;;;1.90;;
39448;SDS011;25151;45.566;9.382;2023-06-01T02:52:38;3.10;;;2.05;;
39448;SDS011;25151;45.566;9.382;2023-06-01T02:55:38;3.78;;;1.88;;
39448;SDS011;25151;45.566;9.382;2023-06-01T02:58:39;2.90;;;2.22;;
39448;SDS011;25151;45.566;9.382;2023-06-01T03:01:41;2.40;;;1.77;;
39448;SDS011;25151;45.566;9.382;2023-06-01T03:04:42;3.13;;;2.17;;
39448;SDS011;25151;45.566;9.382;2023-06-01T03:07:45;3.33;;;2.00;;
39448;SDS011;25151;45.566;9.382;2023-06-01T03:10:46;3.13;;;1.80;;
39448;SDS011;25151;45.566;9.382;2023-06-01T03:13:47;2.00;;;1.67;;
39448;SDS011;25151;45.566;9.382;2023-06-01T03:16:48;2.97;;;1.80;;
39448;SDS011;25151;45.566;9.382;2023-06-01T03:19:48;2.78;;;1.70;;
39448;SDS011;25151;45.566;9.382;2023-06-01T03:22:49;2.70;;;1.80;;
39448;SDS011;25151;45.566;9.382;2023-06-01T03:25:50;2.45;;;2.13;;
39448;SDS011;25151;45.566;9.382;2023-06-01T03:28:50;2.83;;;1.95;;
39448;SDS011;25151;45.566;9.382;2023-06-01T03:31:51;2.65;;;2.00;;
39448;SDS011;25151;45.566;9.382;2023-06-01T03:34:51;2.83;;;2.13;;
39448;SDS011;25151;45.566;9.382;2023-06-01T03:37:52;2.00;;;1.70;;
39448;SDS011;25151;45.566;9.382;2023-06-01T03:40:53;3.90;;;1.73;;
39448;SDS011;25151;45.566;9.382;2023-06-01T03:43:53;2.72;;;1.88;;
39448;SDS011;25151;45.566;9.382;2023-06-01T03:46:54;3.40;;;2.30;;
39448;SDS011;25151;45.566;9.382;2023-06-01T03:49:57;3.72;;;2.10;;
39448;SDS011;25151;45.566;9.382;2023-06-01T03:52:58;2.40;;;1.52;;
39448;SDS011;25151;45.566;9.382;2023-06-01T03:56:00;3.47;;;2.30;;
39448;SDS011;25151;45.566;9.382;2023-06-01T03:59:01;8.63;;;3.10;;
39448;SDS011;25151;45.566;9.382;2023-06-01T04:02:01;8.98;;;4.93;;
39448;SDS011;25151;45.566;9.382;2023-06-01T04:05:05;7.47;;;4.28;;
39448;SDS011;25151;45.566;9.382;2023-06-01T04:08:08;11.13;;;5.72;;
39448;SDS011;25151;45.566;9.382;2023-06-01T04:11:09;10.05;;;5.35;;
39448;SDS011;25151;45.566;9.382;2023-06-01T04:14:10;11.07;;;5.80;;
39448;SDS011;25151;45.566;9.382;2023-06-01T04:17:11;12.60;;;5.68;;
39448;SDS011;25151;45.566;9.382;2023-06-01T04:20:12;8.10;;;5.75;;
39448;SDS011;25151;45.566;9.382;2023-06-01T04:23:14;9.77;;;5.03;;
39448;SDS011;25151;45.566;9.382;2023-06-01T04:26:15;9.43;;;4.75;;
39448;SDS011;25151;45.566;9.382;2023-06-01T04:29:17;9.95;;;5.47;;
39448;SDS011;25151;45.566;9.382;2023-06-01T04:32:21;12.45;;;5.47;;
39448;SDS011;25151;45.566;9.382;2023-06-01T04:35:22;10.30;;;5.55;;
39448;SDS011;25151;45.566;9.382;2023-06-01T04:38:22;8.00;;;5.13;;
39448;SDS011;25151;45.566;9.382;2023-06-01T04:41:25;12.82;;;5.32;;
39448;SDS011;25151;45.566;9.382;2023-06-01T04:44:26;9.40;;;5.43;;
39448;SDS011;25151;45.566;9.382;2023-06-01T04:47:27;8.95;;;4.70;;
39448;SDS011;25151;45.566;9.382;2023-06-01T04:50:28;10.80;;;5.97;;
39448;SDS011;25151;45.566;9.382;2023-06-01T04:53:29;6.07;;;4.88;;
39448;SDS011;25151;45.566;9.382;2023-06-01T04:56:30;8.43;;;4.90;;
39448;SDS011;25151;45.566;9.382;2023-06-01T04:59:31;8.02;;;4.78;;
39448;SDS011;25151;45.566;9.382;2023-06-01T05:02:32;8.77;;;4.70;;
39448;SDS011;25151;45.566;9.382;2023-06-01T05:05:34;6.97;;;4.95;;
39448;SDS011;25151;45.566;9.382;2023-06-01T05:08:35;7.10;;;4.55;;
39448;SDS011;25151;45.566;9.382;2023-06-01T05:11:36;8.57;;;4.82;;
39448;SDS011;25151;45.566;9.382;2023-06-01T05:14:37;7.60;;;4.70;;
39448;SDS011;25151;45.566;9.382;2023-06-01T05:17:38;9.95;;;4.85;;
39448;SDS011;25151;45.566;9.382;2023-06-01T05:20:41;16.30;;;4.93;;
39448;SDS011;25151;45.566;9.382;2023-06-01T05:23:43;12.63;;;5.32;;
39448;SDS011;25151;45.566;9.382;2023-06-01T05:26:44;9.38;;;4.60;;
39448;SDS011;25151;45.566;9.382;2023-06-01T05:29:44;11.18;;;4.68;;
39448;SDS011;25151;45.566;9.382;2023-06-01T05:32:45;15.73;;;5.82;;
39448;SDS011;25151;45.566;9.382;2023-06-01T05:35:45;11.82;;;5.20;;
39448;SDS011;25151;45.566;9.382;2023-06-01T05:38:46;15.02;;;5.05;;
39448;SDS011;25151;45.566;9.382;2023-06-01T05:41:47;20.08;;;6.28;;
39448;SDS011;25151;45.566;9.382;2023-06-01T05:44:48;11.73;;;5.28;;
39448;SDS011;25151;45.566;9.382;2023-06-01T05:47:48;16.17;;;5.82;;
39448;SDS011;25151;45.566;9.382;2023-06-01T05:50:50;15.73;;;5.78;;
39448;SDS011;25151;45.566;9.382;2023-06-01T05:53:50;12.88;;;5.47;;
39448;SDS011;25151;45.566;9.382;2023-06-01T05:56:51;11.68;;;6.25;;
39448;SDS011;25151;45.566;9.382;2023-06-01T05:59:52;11.82;;;5.90;;
39448;SDS011;25151;45.566;9.382;2023-06-01T06:02:53;17.70;;;6.43;;
39448;SDS011;25151;45.566;9.382;2023-06-01T06:05:56;14.45;;;5.95;;
39448;SDS011;25151;45.566;9.382;2023-06-01T06:08:57;12.25;;;5.45;;
39448;SDS011;25151;45.566;9.382;2023-06-01T06:11:58;16.98;;;5.78;;
39448;SDS011;25151;45.566;9.382;2023-06-01T06:15:01;11.30;;;5.50;;
39448;SDS011;25151;45.566;9.382;2023-06-01T06:18:04;13.32;;;5.97;;
39448;SDS011;25151;45.566;9.382;2023-06-01T06:21:06;11.80;;;5.20;;
39448;SDS011;25151;45.566;9.382;2023-06-01T06:24:07;11.10;;;5.47;;
39448;SDS011;25151;45.566;9.382;2023-06-01T06:27:08;10.57;;;5.18;;
39448;SDS011;25151;45.566;9.382;2023-06-01T06:30:11;10.80;;;5.35;;
39448;SDS011;25151;45.566;9.382;2023-06-01T06:33:12;10.32;;;5.53;;
39448;SDS011;25151;45.566;9.382;2023-06-01T06:36:14;11.20;;;5.90;;
39448;SDS011;25151;45.566;9.382;2023-06-01T06:39:14;9.25;;;5.80;;
39448;SDS011;25151;45.566;9.382;2023-06-01T06:42:16;12.80;;;5.30;;
39448;SDS011;25151;45.566;9.382;2023-06-01T06:45:16;10.98;;;5.25;;
39448;SDS011;25151;45.566;9.382;2023-06-01T06:48:17;9.95;;;5.80;;
39448;SDS011;25151;45.566;9.382;2023-06-01T06:51:18;8.45;;;5.28;;
39448;SDS011;25151;45.566;9.382;2023-06-01T06:54:22;9.32;;;4.85;;
39448;SDS011;25151;45.566;9.382;2023-06-01T06:57:23;9.68;;;5.47;;
39448;SDS011;25151;45.566;9.382;2023-06-01T07:00:23;15.80;;;5.32;;
39448;SDS011;25151;45.566;9.382;2023-06-01T07:03:24;12.82;;;5.97;;
39448;SDS011;25151;45.566;9.382;2023-06-01T07:06:26;9.90;;;5.38;;
39448;SDS011;25151;45.566;9.382;2023-06-01T07:09:27;9.63;;;4.97;;
39448;SDS011;25151;45.566;9.382;2023-06-01T07:12:28;14.70;;;5.28;;
39448;SDS011;25151;45.566;9.382;2023-06-01T07:15:29;14.27;;;5.60;;
39448;SDS011;25151;45.566;9.382;2023-06-01T07:18:29;16.42;;;5.82;;
39448;SDS011;25151;45.566;9.382;2023-06-01T07:21:30;11.27;;;6.25;;
39448;SDS011;25151;45.566;9.382;2023-06-01T07:24:31;14.00;;;5.88;;
39448;SDS011;25151;45.566;9.382;2023-06-01T07:27:32;8.93;;;5.10;;
39448;SDS011;25151;45.566;9.382;2023-06-01T07:30:37;7.88;;;5.25;;
39448;SDS011;25151;45.566;9.382;2023-06-01T07:33:38;11.02;;;5.82;;
39448;SDS011;25151;45.566;9.382;2023-06-01T07:36:40;16.33;;;5.13;;
39448;SDS011;25151;45.566;9.382;2023-06-01T07:39:41;13.77;;;5.15;;
39448;SDS011;25151;45.566;9.382;2023-06-01T07:42:42;12.82;;;5.47;;
39448;SDS011;25151;45.566;9.382;2023-06-01T07:45:43;9.75;;;5.05;;
39448;SDS011;25151;45.566;9.382;2023-06-01T07:48:44;9.07;;;5.55;;
39448;SDS011;25151;45.566;9.382;2023-06-01T07:51:44;10.10;;;5.50;;
39448;SDS011;25151;45.566;9.382;2023-06-01T07:54:45;6.45;;;4.65;;
39448;SDS011;25151;45.566;9.382;2023-06-01T07:57:46;11.90;;;5.00;;
39448;SDS011;25151;45.566;9.382;2023-06-01T08:00:46;9.90;;;5.72;;
39448;SDS011;25151;45.566;9.382;2023-06-01T08:03:50;9.65;;;5.18;;
39448;SDS011;25151;45.566;9.382;2023-06-01T08:06:51;8.13;;;5.75;;
39448;SDS011;25151;45.566;9.382;2023-06-01T08:09:56;6.82;;;4.50;;
39448;SDS011;25151;45.566;9.382;2023-06-01T08:12:58;9.75;;;5.30;;
39448;SDS011;25151;45.566;9.382;2023-06-01T08:15:58;9.27;;;5.53;;
39448;SDS011;25151;45.566;9.382;2023-06-01T08:18:59;18.23;;;4.90;;
39448;SDS011;25151;45.566;9.382;2023-06-01T08:22:00;7.95;;;4.82;;
39448;SDS011;25151;45.566;9.382;2023-06-01T08:25:04;10.25;;;4.60;;
39448;SDS011;25151;45.566;9.382;2023-06-01T08:28:05;7.40;;;4.85;;
39448;SDS011;25151;45.566;9.382;2023-06-01T08:31:06;6.55;;;4.57;;
39448;SDS011;25151;45.566;9.382;2023-06-01T08:34:07;7.07;;;4.93;;
39448;SDS011;25151;45.566;9.382;2023-06-01T08:37:08;9.27;;;4.35;;
39448;SDS011;25151;45.566;9.382;2023-06-01T08:40:09;8.05;;;5.15;;
39448;SDS011;25151;45.566;9.382;2023-06-01T08:46:17;7.53;;;4.95;;
39448;SDS011;25151;45.566;9.382;2023-06-01T08:49:21;10.77;;;5.65;;
39448;SDS011;25151;45.566;9.382;2023-06-01T08:52:25;6.70;;;4.78;;
39448;SDS011;25151;45.566;9.382;2023-06-01T08:55:29;7.10;;;4.60;;
39448;SDS011;25151;45.566;9.382;2023-06-01T08:58:30;13.82;;;5.15;;
39448;SDS011;25151;45.566;9.382;2023-06-01T09:01:30;21.25;;;5.97;;
39448;SDS011;25151;45.566;9.382;2023-06-01T09:04:33;12.70;;;5.32;;
39448;SDS011;25151;45.566;9.382;2023-06-01T09:07:38;17.30;;;6.47;;
39448;SDS011;25151;45.566;9.382;2023-06-01T09:10:40;15.65;;;5.88;;
39448;SDS011;25151;45.566;9.382;2023-06-01T09:13:41;12.68;;;5.22;;
39448;SDS011;25151;45.566;9.382;2023-06-01T09:16:42;19.27;;;6.35;;
39448;SDS011;25151;45.566;9.382;2023-06-01T09:19:43;17.52;;;7.30;;
39448;SDS011;25151;45.566;9.382;2023-06-01T09:22:45;14.43;;;6.97;;
39448;SDS011;25151;45.566;9.382;2023-06-01T09:25:46;11.90;;;6.78;;
39448;SDS011;25151;45.566;9.382;2023-06-01T09:28:58;13.55;;;6.53;;
39448;SDS011;25151;45.566;9.382;2023-06-01T09:32:00;12.88;;;6.80;;
39448;SDS011;25151;45.566;9.382;2023-06-01T09:35:02;10.73;;;6.20;;
39448;SDS011;25151;45.566;9.382;2023-06-01T09:38:03;18.90;;;7.70;;
39448;SDS011;25151;45.566;9.382;2023-06-01T09:41:06;14.57;;;6.72;;
39448;SDS011;25151;45.566;9.382;2023-06-01T09:44:07;16.55;;;6.85;;
39448;SDS011;25151;45.566;9.382;2023-06-01T09:47:09;14.27;;;7.50;;
39448;SDS011;25151;45.566;9.382;2023-06-01T09:50:31;9.52;;;6.05;;
39448;SDS011;25151;45.566;9.382;2023-06-01T09:53:42;13.38;;;6.32;;
39448;SDS011;25151;45.566;9.382;2023-06-01T09:56:43;9.55;;;6.40;;
39448;SDS011;25151;45.566;9.382;2023-06-01T09:59:45;13.35;;;6.93;;
39448;SDS011;25151;45.566;9.382;2023-06-01T10:02:47;10.00;;;6.22;;
39448;SDS011;25151;45.566;9.382;2023-06-01T10:05:48;15.75;;;6.85;;
39448;SDS011;25151;45.566;9.382;2023-06-01T10:08:49;10.45;;;6.60;;
39448;SDS011;25151;45.566;9.382;2023-06-01T10:11:52;11.77;;;7.00;;
39448;SDS011;25151;45.566;9.382;2023-06-01T10:14:55;10.77;;;7.45;;
39448;SDS011;25151;45.566;9.382;2023-06-01T10:17:57;12.00;;;8.13;;
39448;SDS011;25151;45.566;9.382;2023-06-01T10:20:59;11.75;;;6.57;;
39448;SDS011;25151;45.566;9.382;2023-06-01T10:23:59;16.75;;;7.18;;
39448;SDS011;25151;45.566;9.382;2023-06-01T10:30:15;9.68;;;7.30;;
39448;SDS011;25151;45.566;9.382;2023-06-01T10:33:23;11.90;;;7.35;;
39448;SDS011;25151;45.566;9.382;2023-06-01T10:39:53;9.75;;;7.25;;
39448;SDS011;25151;45.566;9.382;2023-06-01T10:46:41;18.13;;;7.57;;
39448;SDS011;25151;45.566;9.382;2023-06-01T10:52:49;13.18;;;8.55;;
39448;SDS011;25151;45.566;9.382;2023-06-01T10:59:27;10.18;;;7.38;;
39448;SDS011;25151;45.566;9.382;2023-06-01T11:02:28;12.57;;;7.15;;
39448;SDS011;25151;45.566;9.382;2023-06-01T11:15:08;18.23;;;7.22;;
39448;SDS011;25151;45.566;9.382;2023-06-01T11:21:41;12.43;;;6.80;;
39448;SDS011;25151;45.566;9.382;2023-06-01T11:24:43;19.00;;;7.22;;
39448;SDS011;25151;45.566;9.382;2023-06-01T11:27:51;19.27;;;7.50;;
39448;SDS011;25151;45.566;9.382;2023-06-01T11:30:55;22.00;;;7.40;;
39448;SDS011;25151;45.566;9.382;2023-06-01T11:33:58;12.77;;;6.88;;
39448;SDS011;25151;45.566;9.382;2023-06-01T11:36:59;16.92;;;6.68;;
39448;SDS011;25151;45.566;9.382;2023-06-01T11:40:05;14.13;;;7.53;;
39448;SDS011;25151;45.566;9.382;2023-06-01T11:43:08;11.30;;;6.90;;
39448;SDS011;25151;45.566;9.382;2023-06-01T11:46:09;17.80;;;7.05;;
39448;SDS011;25151;45.566;9.382;2023-06-01T11:49:10;17.77;;;6.63;;
39448;SDS011;25151;45.566;9.382;2023-06-01T11:52:13;12.23;;;6.97;;
39448;SDS011;25151;45.566;9.382;2023-06-01T11:55:15;16.10;;;7.40;;
39448;SDS011;25151;45.566;9.382;2023-06-01T11:58:29;12.45;;;8.07;;
39448;SDS011;25151;45.566;9.382;2023-06-01T12:01:30;12.98;;;6.68;;
39448;SDS011;25151;45.566;9.382;2023-06-01T12:04:32;12.20;;;6.65;;
39448;SDS011;25151;45.566;9.382;2023-06-01T12:07:42;14.75;;;7.07;;
39448;SDS011;25151;45.566;9.382;2023-06-01T12:10:50;11.48;;;7.07;;
39448;SDS011;25151;45.566;9.382;2023-06-01T12:13:55;10.60;;;7.25;;
39448;SDS011;25151;45.566;9.382;2023-06-01T12:17:01;12.73;;;6.70;;
39448;SDS011;25151;45.566;9.382;2023-06-01T12:20:03;11.57;;;7.00;;
39448;SDS011;25151;45.566;9.382;2023-06-01T12:26:13;10.27;;;6.93;;
39448;SDS011;25151;45.566;9.382;2023-06-01T12:29:14;12.77;;;7.40;;
39448;SDS011;25151;45.566;9.382;2023-06-01T12:32:15;10.25;;;6.95;;
39448;SDS011;25151;45.566;9.382;2023-06-01T12:35:18;10.13;;;6.97;;
39448;SDS011;25151;45.566;9.382;2023-06-01T12:38:23;10.15;;;7.30;;
39448;SDS011;25151;45.566;9.382;2023-06-01T12:41:24;12.52;;;6.90;;
39448;SDS011;25151;45.566;9.382;2023-06-01T12:44:25;9.30;;;7.05;;
39448;SDS011;25151;45.566;9.382;2023-06-01T12:47:27;10.95;;;6.68;;
39448;SDS011;25151;45.566;9.382;2023-06-01T12:50:28;10.32;;;6.82;;
